createdAt,value
2019-04-20T00:02:14.369Z,6.92
2019-04-20T00:06:17.563Z,8.30
2019-04-20T00:10:24.693Z,7.90
2019-04-20T00:14:33.866Z,8.48
2019-04-20T00:18:42.967Z,9.05
2019-04-20T00:22:59.760Z,7.83
2019-04-20T00:31:29.751Z,9.70
2019-04-20T00:35:20.965Z,9.80
2019-04-20T00:39:27.889Z,7.60
2019-04-20T00:43:37.312Z,7.60
2019-04-20T00:47:50.102Z,8.43
2019-04-20T00:52:18.746Z,8.23
2019-04-20T00:55:57.046Z,7.10
2019-04-20T01:00:22.897Z,7.35
2019-04-20T01:04:34.590Z,9.23
2019-04-20T01:08:27.461Z,8.25
2019-04-20T01:12:36.815Z,6.87
2019-04-20T01:16:47.059Z,8.60
2019-04-20T01:20:47.882Z,9.48
2019-04-20T01:24:54.960Z,8.83
2019-04-20T01:29:15.889Z,8.13
2019-04-20T01:33:24.342Z,7.87
2019-04-20T01:37:31.716Z,7.67
2019-04-20T01:41:24.349Z,9.00
2019-04-20T01:45:36.260Z,8.63
2019-04-20T01:49:41.843Z,9.05
2019-04-20T01:54:06.710Z,8.20
2019-04-20T01:58:36.444Z,10.82
2019-04-20T02:02:35.526Z,7.08
2019-04-20T02:06:48.116Z,7.60
2019-04-20T02:10:53.717Z,8.23
2019-04-20T02:15:00.724Z,7.65
2019-04-20T02:19:19.597Z,8.93
2019-04-20T02:23:21.193Z,7.62
2019-04-20T02:27:20.572Z,8.80
2019-04-20T02:36:21.068Z,8.95
2019-04-20T02:40:32.857Z,8.28
2019-04-20T02:44:30.581Z,8.20
2019-04-20T02:48:42.701Z,8.28
2019-04-20T02:53:05.486Z,7.33
2019-04-20T02:56:57.562Z,9.80
2019-04-20T03:00:52.388Z,7.75
2019-04-20T03:04:45.277Z,9.03
2019-04-20T03:09:09.101Z,10.08
2019-04-20T03:13:17.117Z,9.13
2019-04-20T03:17:25.650Z,7.17
2019-04-20T03:21:27.284Z,7.10
2019-04-20T03:25:55.274Z,11.28
2019-04-20T03:30:22.763Z,8.05
2019-04-20T03:34:47.457Z,8.48
2019-04-20T03:38:30.197Z,7.53
2019-04-20T03:42:14.117Z,7.47
2019-04-20T03:46:30.088Z,9.40
2019-04-20T03:50:46.777Z,7.45
2019-04-20T03:55:15.065Z,7.45
2019-04-20T03:59:34.644Z,7.58
2019-04-20T04:04:09.483Z,8.78
2019-04-20T04:08:06.180Z,7.90
2019-04-20T04:12:44.550Z,7.10
2019-04-20T04:16:53.797Z,8.73
2019-04-20T04:21:01.922Z,7.30
2019-04-20T04:25:18.339Z,8.85
2019-04-20T04:29:34.631Z,8.33
2019-04-20T04:33:53.161Z,9.33
2019-04-20T04:37:51.403Z,7.35
2019-04-20T04:42:02.146Z,7.83
2019-04-20T04:45:40.565Z,7.40
2019-04-20T04:49:55.372Z,6.35
2019-04-20T04:54:01.789Z,7.40
2019-04-20T04:58:02.404Z,9.68
2019-04-20T05:02:08.030Z,7.75
2019-04-20T05:06:35.657Z,8.35
2019-04-20T05:10:26.977Z,7.08
2019-04-20T05:14:45.325Z,7.55
2019-04-20T05:19:07.723Z,6.65
2019-04-20T05:23:20.821Z,9.10
2019-04-20T05:27:44.174Z,8.10
2019-04-20T05:31:30.903Z,7.80
2019-04-20T05:35:58.929Z,7.47
2019-04-20T05:40:07.703Z,7.72
2019-04-20T05:44:25.975Z,7.53
2019-04-20T05:48:38.160Z,7.50
2019-04-20T05:52:50.972Z,8.30
2019-04-20T05:56:53.877Z,8.35
2019-04-20T06:01:06.767Z,12.95
2019-04-20T06:05:08.489Z,16.15
2019-04-20T06:09:16.573Z,18.75
2019-04-20T06:13:30.003Z,28.45
2019-04-20T06:18:13.823Z,13.30
2019-04-20T06:23:00.008Z,6.58
2019-04-20T06:27:00.882Z,6.55
2019-04-20T06:30:56.921Z,16.42
2019-04-20T06:35:18.951Z,16.37
2019-04-20T06:39:20.411Z,19.95
2019-04-20T06:43:25.479Z,7.12
2019-04-20T06:47:41.873Z,7.28
2019-04-20T06:51:47.656Z,7.92
2019-04-20T06:56:04.326Z,20.52
2019-04-20T07:00:07.363Z,6.75
2019-04-20T07:04:33.313Z,28.92
2019-04-20T07:08:33.371Z,16.93
2019-04-20T07:12:27.262Z,20.55
2019-04-20T07:17:00.137Z,21.45
2019-04-20T07:21:13.853Z,10.63
2019-04-20T07:25:19.188Z,21.45
2019-04-20T07:29:40.742Z,17.85
2019-04-20T07:33:46.815Z,20.32
2019-04-20T07:42:00.392Z,21.70
2019-04-20T07:46:10.477Z,20.32
2019-04-20T07:50:07.696Z,17.92
2019-04-20T07:54:33.173Z,10.43
2019-04-20T07:58:23.053Z,22.70
2019-04-20T08:02:58.715Z,24.55
2019-04-20T08:06:48.769Z,20.82
2019-04-20T08:11:10.311Z,19.15
2019-04-20T08:15:30.065Z,17.52
2019-04-20T08:19:23.377Z,15.00
2019-04-20T08:23:35.959Z,9.00
2019-04-20T08:27:27.566Z,7.37
2019-04-20T08:31:56.239Z,9.05
2019-04-20T08:36:12.255Z,18.27
2019-04-20T08:40:11.967Z,9.10
2019-04-20T08:44:42.219Z,13.95
2019-04-20T08:48:31.366Z,15.25
2019-04-20T08:53:01.267Z,14.83
2019-04-20T08:56:31.799Z,12.90
2019-04-20T09:00:33.155Z,10.45
2019-04-20T09:04:45.157Z,12.35
2019-04-20T09:08:55.505Z,6.92
2019-04-20T09:13:03.978Z,10.70
2019-04-20T09:17:32.587Z,12.47
2019-04-20T09:21:43.629Z,10.72
2019-04-20T09:26:00.385Z,7.62
2019-04-20T09:30:07.764Z,7.20
2019-04-20T09:34:26.137Z,7.60
2019-04-20T09:38:34.810Z,6.37
2019-04-20T09:42:32.618Z,7.05
2019-04-20T09:46:44.249Z,10.53
2019-04-20T09:51:02.373Z,13.75
2019-04-20T09:55:07.853Z,7.20
2019-04-20T09:59:25.214Z,7.53
2019-04-20T10:03:10.743Z,6.03
2019-04-20T10:07:21.373Z,6.85
2019-04-20T10:11:23.713Z,5.50
2019-04-20T10:15:30.995Z,10.15
2019-04-20T10:19:39.433Z,8.40
2019-04-20T10:23:44.905Z,10.90
2019-04-20T10:27:51.542Z,7.78
2019-04-20T10:31:59.246Z,9.48
2019-04-20T10:36:05.714Z,8.55
2019-04-20T10:40:11.609Z,6.05
2019-04-20T10:44:17.276Z,6.20
2019-04-20T10:48:23.519Z,6.08
2019-04-20T10:52:29.777Z,6.15
2019-04-20T10:56:35.381Z,6.08
2019-04-20T11:00:43.844Z,5.97
2019-04-20T11:04:50.635Z,8.45
2019-04-20T11:08:56.396Z,6.40
2019-04-20T11:13:03.196Z,8.13
2019-04-20T11:17:09.641Z,5.10
2019-04-20T11:21:15.451Z,7.03
2019-04-20T11:25:22.103Z,5.03
2019-04-20T11:29:28.455Z,3.17
2019-04-20T11:33:34.301Z,5.25
2019-04-20T11:37:39.902Z,4.87
2019-04-20T11:41:45.774Z,4.67
2019-04-20T11:45:51.761Z,3.87
2019-04-20T11:49:57.618Z,4.45
2019-04-20T11:54:04.230Z,8.05
2019-04-20T11:58:10.119Z,9.53
2019-04-20T12:02:34.949Z,6.42
2019-04-20T12:06:36.910Z,4.47
2019-04-20T12:10:43.772Z,6.33
2019-04-20T12:14:50.563Z,3.55
2019-04-20T12:18:56.781Z,3.62
2019-04-20T12:23:02.593Z,5.33
2019-04-20T12:27:08.865Z,8.00
2019-04-20T12:31:29.482Z,4.25
2019-04-20T12:35:36.114Z,3.98
2019-04-20T12:39:53.294Z,5.92
2019-04-20T12:44:01.705Z,5.23
2019-04-20T12:48:08.172Z,4.53
2019-04-20T12:52:14.446Z,4.20
2019-04-20T12:56:22.318Z,4.87
2019-04-20T13:00:43.604Z,4.10
2019-04-20T13:04:51.179Z,3.75
2019-04-20T13:09:00.300Z,4.37
2019-04-20T13:13:36.548Z,8.43
2019-04-20T13:17:42.340Z,7.92
2019-04-20T13:21:49.203Z,5.53
2019-04-20T13:25:55.019Z,3.58
2019-04-20T13:30:00.888Z,3.87
2019-04-20T13:34:07.584Z,4.33
2019-04-20T13:38:14.183Z,4.22
2019-04-20T13:42:24.801Z,4.97
2019-04-20T13:46:27.257Z,4.55
2019-04-20T13:50:33.888Z,3.20
2019-04-20T13:54:40.055Z,2.95
2019-04-20T13:59:01.835Z,3.65
2019-04-20T14:03:09.014Z,5.00
2019-04-20T14:07:17.025Z,3.62
2019-04-20T14:11:23.189Z,5.17
2019-04-20T14:15:29.150Z,4.03
2019-04-20T14:19:34.887Z,4.75
2019-04-20T14:23:41.140Z,5.47
2019-04-20T14:27:47.095Z,3.25
2019-04-20T14:31:52.675Z,4.58
2019-04-20T14:35:59.057Z,3.27
2019-04-20T14:40:06.155Z,3.83
2019-04-20T14:44:12.155Z,5.75
2019-04-20T14:48:18.566Z,6.22
2019-04-20T14:52:25.783Z,4.85
2019-04-20T14:56:31.740Z,5.92
2019-04-20T15:00:53.066Z,3.65
2019-04-20T15:04:59.061Z,3.98
2019-04-20T15:09:06.901Z,3.60
2019-04-20T15:13:14.890Z,3.70
2019-04-20T15:17:33.258Z,3.58
2019-04-20T15:21:39.725Z,3.27
2019-04-20T15:25:46.457Z,3.58
2019-04-20T15:29:52.144Z,4.03
2019-04-20T15:33:59.029Z,3.45
2019-04-20T15:38:05.108Z,3.90
2019-04-20T15:42:11.568Z,4.15
2019-04-20T15:46:17.357Z,4.40
2019-04-20T15:50:22.912Z,9.05
2019-04-20T15:54:29.614Z,7.58
2019-04-20T15:58:36.459Z,4.97
2019-04-20T16:03:07.391Z,2.72
2019-04-20T16:07:15.065Z,3.75
2019-04-20T16:11:21.520Z,4.12
2019-04-20T16:15:27.563Z,3.20
2019-04-20T16:19:44.942Z,5.50
2019-04-20T16:24:18.974Z,3.45
2019-04-20T16:28:25.671Z,3.52
2019-04-20T16:32:32.363Z,4.40
2019-04-20T16:36:39.142Z,4.25
2019-04-20T16:40:46.212Z,3.15
2019-04-20T16:44:53.467Z,3.35
2019-04-20T16:48:59.425Z,3.00
2019-04-20T16:53:06.709Z,5.58
2019-04-20T16:57:13.105Z,7.92
2019-04-20T17:01:21.364Z,6.55
2019-04-20T17:05:27.630Z,3.05
2019-04-20T17:09:33.807Z,7.78
2019-04-20T17:13:47.476Z,4.75
2019-04-20T17:17:49.547Z,4.33
2019-04-20T17:21:57.107Z,5.37
2019-04-20T17:26:03.994Z,3.90
2019-04-20T17:30:29.432Z,4.50
2019-04-20T17:34:46.814Z,3.83
2019-04-20T17:38:48.500Z,3.87
2019-04-20T17:43:00.011Z,4.85
2019-04-20T17:47:09.661Z,3.95
2019-04-20T17:51:28.716Z,3.02
2019-04-20T17:55:30.211Z,4.65
2019-04-20T17:59:30.415Z,10.78
2019-04-20T18:04:10.812Z,9.40
2019-04-20T18:08:15.470Z,6.15
2019-04-20T18:12:04.787Z,8.53
2019-04-20T18:16:36.837Z,5.58
2019-04-20T18:20:34.706Z,6.50
2019-04-20T18:25:01.861Z,6.97
2019-04-20T18:29:26.228Z,6.28
2019-04-20T18:32:55.720Z,4.67
2019-04-20T18:37:07.651Z,5.58
2019-04-20T18:41:23.077Z,5.20
2019-04-20T18:45:33.767Z,5.90
2019-04-20T18:49:38.498Z,5.90
2019-04-20T18:53:39.233Z,4.78
2019-04-20T18:57:48.934Z,5.42
2019-04-20T19:01:50.906Z,5.92
2019-04-20T19:05:57.934Z,6.62
2019-04-20T19:10:13.888Z,5.67
2019-04-20T19:14:40.893Z,4.10
2019-04-20T19:19:00.621Z,5.40
2019-04-20T19:22:58.071Z,5.40
2019-04-20T19:27:10.203Z,6.00
2019-04-20T19:31:30.853Z,6.47
2019-04-20T19:35:33.651Z,6.05
2019-04-20T19:39:45.993Z,6.92
2019-04-20T19:43:48.399Z,6.40
2019-04-20T19:48:01.931Z,5.67
2019-04-20T19:52:27.235Z,5.80
2019-04-20T19:56:10.725Z,7.20
2019-04-20T20:00:10.139Z,6.28
2019-04-20T20:04:17.579Z,5.08
2019-04-20T20:08:26.009Z,5.72
2019-04-20T20:12:31.563Z,6.03
2019-04-20T20:16:55.993Z,6.78
2019-04-20T20:21:00.852Z,7.97
2019-04-20T20:24:52.565Z,8.50
2019-04-20T20:29:10.942Z,9.03
2019-04-20T20:33:22.114Z,7.40
2019-04-20T20:37:25.414Z,6.65
2019-04-20T20:41:28.975Z,9.23
2019-04-20T20:45:38.417Z,7.53
2019-04-20T20:50:05.878Z,7.08
2019-04-20T20:53:56.512Z,6.12
2019-04-20T20:58:01.777Z,6.20
2019-04-20T21:02:08.873Z,7.35
2019-04-20T21:06:11.663Z,7.35
2019-04-20T21:10:25.657Z,6.72
2019-04-20T21:14:29.247Z,7.80
2019-04-20T21:18:50.346Z,7.17
2019-04-20T21:22:54.807Z,6.10
2019-04-20T21:26:49.581Z,6.60
2019-04-20T21:30:58.741Z,5.75
2019-04-20T21:35:08.507Z,7.58
2019-04-20T21:39:20.696Z,7.28
2019-04-20T21:43:20.703Z,6.78
2019-04-20T21:47:31.492Z,6.87
2019-04-20T21:51:44.553Z,6.60
2019-04-20T21:55:43.723Z,6.22
2019-04-20T21:59:54.262Z,6.80
2019-04-20T22:03:58.733Z,6.72
2019-04-20T22:08:07.912Z,8.15
2019-04-20T22:12:12.036Z,7.35
2019-04-20T22:16:18.956Z,7.53
2019-04-20T22:20:33.474Z,6.90
2019-04-20T22:24:46.525Z,9.33
2019-04-20T22:28:40.341Z,7.35
2019-04-20T22:32:49.947Z,8.65
2019-04-20T22:36:55.858Z,7.37
2019-04-20T22:41:07.732Z,7.25
2019-04-20T22:45:13.346Z,7.72
2019-04-20T22:49:33.417Z,7.72
2019-04-20T22:53:36.392Z,7.37
2019-04-20T22:57:47.332Z,6.33
2019-04-20T23:01:45.741Z,9.20
2019-04-20T23:05:47.113Z,6.97
2019-04-20T23:09:56.442Z,7.85
2019-04-20T23:14:00.521Z,7.78
2019-04-20T23:18:06.376Z,8.53
2019-04-20T23:22:13.990Z,9.83
2019-04-20T23:26:25.524Z,8.95
2019-04-20T23:30:31.443Z,8.33
2019-04-20T23:34:36.055Z,7.67
2019-04-20T23:38:44.329Z,8.80
2019-04-20T23:42:55.823Z,6.83
2019-04-20T23:47:13.741Z,7.40
2019-04-20T23:51:39.058Z,7.40
2019-04-20T23:55:23.889Z,6.67
2019-04-20T23:59:35.371Z,6.87
